Market Center, South Carolina
Current Conditions -  °F | °C
As of 1:53 AM on Wednesday 22 Oct 2014 (Local Time) from KCUB Reporting Station
Clear Clear  
Wind Chill: 59°   Ceiling: Unl
Heat Index: 59°   Visibility: 10mi
Dew Point: 42°   Wind: 0mph
Humidity: 53%   Direction: NA
Pressure: 29.98"   Gusts: NA
Location:  33.9841°N, 81.0264°W
Report Text: KCUB 220553Z AUTO 00000KT 10SM CLR 15/06 A2998 RMK AO2 SLP150 T01500056 10200 20144 51007 $
Loading
Personal Weather Stations






























Interactive Weather Map
Tropical Storm Tracking
New forecast layout! Learn more

10-Day Weather Forecast

Advertisements
Track Severe Weather on mobile